sensor_id;sensor_type;location;lat;lon;timestamp;pressure;altitude;pressure_sealevel;temperature;humidity
63568;BME280;49715;42.386;20.434;2023-02-10T00:01:30;99100.78;;;-3.28;47.11
63568;BME280;49715;42.386;20.434;2023-02-10T00:03:57;99107.53;;;-3.19;47.13
63568;BME280;49715;42.386;20.434;2023-02-10T00:06:25;99104.09;;;-3.20;47.05
63568;BME280;49715;42.386;20.434;2023-02-10T00:08:57;99100.59;;;-3.16;47.23
63568;BME280;49715;42.386;20.434;2023-02-10T00:11:25;99099.75;;;-3.18;47.14
63568;BME280;49715;42.386;20.434;2023-02-10T00:14:15;99101.44;;;-3.15;46.87
63568;BME280;49715;42.386;20.434;2023-02-10T00:16:41;99102.34;;;-3.16;46.81
63568;BME280;49715;42.386;20.434;2023-02-10T00:19:08;99097.25;;;-3.21;47.34
63568;BME280;49715;42.386;20.434;2023-02-10T00:21:34;99106.59;;;-3.15;47.14
63568;BME280;49715;42.386;20.434;2023-02-10T00:24:01;99104.91;;;-3.16;46.90
63568;BME280;49715;42.386;20.434;2023-02-10T00:26:28;99104.06;;;-3.18;46.96
63568;BME280;49715;42.386;20.434;2023-02-10T00:28:54;99108.25;;;-3.11;46.86
63568;BME280;49715;42.386;20.434;2023-02-10T00:31:21;99108.19;;;-3.08;47.10
63568;BME280;49715;42.386;20.434;2023-02-10T00:33:48;99109.97;;;-3.10;48.67
63568;BME280;49715;42.386;20.434;2023-02-10T00:36:15;99113.53;;;-3.17;47.00
63568;BME280;49715;42.386;20.434;2023-02-10T00:38:42;99116.09;;;-3.19;46.83
63568;BME280;49715;42.386;20.434;2023-02-10T00:41:10;99110.25;;;-3.28;49.14
63568;BME280;49715;42.386;20.434;2023-02-10T00:43:37;99106.88;;;-3.33;47.39
63568;BME280;49715;42.386;20.434;2023-02-10T00:46:06;99109.53;;;-3.37;47.25
63568;BME280;49715;42.386;20.434;2023-02-10T00:48:34;99113.03;;;-3.42;47.38
63568;BME280;49715;42.386;20.434;2023-02-10T00:51:01;99114.84;;;-3.49;47.43
63568;BME280;49715;42.386;20.434;2023-02-10T00:53:29;99114.13;;;-3.58;47.80
63568;BME280;49715;42.386;20.434;2023-02-10T00:55:55;99109.97;;;-3.66;47.83
63568;BME280;49715;42.386;20.434;2023-02-10T00:58:23;99116.81;;;-3.65;47.87
63568;BME280;49715;42.386;20.434;2023-02-10T01:00:51;99110.88;;;-3.71;47.68
63568;BME280;49715;42.386;20.434;2023-02-10T01:03:17;99104.94;;;-3.76;47.84
63568;BME280;49715;42.386;20.434;2023-02-10T01:05:44;99101.59;;;-3.83;47.90
63568;BME280;49715;42.386;20.434;2023-02-10T01:08:11;99100.78;;;-3.86;47.96
63568;BME280;49715;42.386;20.434;2023-02-10T01:10:38;99111.94;;;-3.86;48.09
63568;BME280;49715;42.386;20.434;2023-02-10T01:13:06;99107.66;;;-3.87;48.24
63568;BME280;49715;42.386;20.434;2023-02-10T01:15:33;99101.72;;;-3.92;48.20
63568;BME280;49715;42.386;20.434;2023-02-10T01:17:59;99099.13;;;-3.91;48.43
63568;BME280;49715;42.386;20.434;2023-02-10T01:20:26;99108.53;;;-3.88;47.97
63568;BME280;49715;42.386;20.434;2023-02-10T01:22:53;99110.25;;;-3.87;48.06
63568;BME280;49715;42.386;20.434;2023-02-10T01:25:20;99108.53;;;-3.88;48.27
63568;BME280;49715;42.386;20.434;2023-02-10T01:27:46;99108.56;;;-3.91;48.33
63568;BME280;49715;42.386;20.434;2023-02-10T01:30:13;99111.16;;;-3.91;48.34
63568;BME280;49715;42.386;20.434;2023-02-10T01:32:39;99106.13;;;-3.99;48.14
63568;BME280;49715;42.386;20.434;2023-02-10T01:35:05;99114.69;;;-3.98;48.28
63568;BME280;49715;42.386;20.434;2023-02-10T01:37:33;99110.47;;;-4.05;48.71
63568;BME280;49715;42.386;20.434;2023-02-10T01:40:00;99099.38;;;-4.09;48.53
63568;BME280;49715;42.386;20.434;2023-02-10T01:42:27;99100.22;;;-4.08;48.63
63568;BME280;49715;42.386;20.434;2023-02-10T01:47:20;99103.72;;;-4.14;48.54
63568;BME280;49715;42.386;20.434;2023-02-10T01:49:49;99101.19;;;-4.17;48.84
63568;BME280;49715;42.386;20.434;2023-02-10T01:52:21;99099.50;;;-4.18;48.69
63568;BME280;49715;42.386;20.434;2023-02-10T01:54:55;99100.38;;;-4.22;48.75
63568;BME280;49715;42.386;20.434;2023-02-10T01:57:24;99089.28;;;-4.24;48.59
63568;BME280;49715;42.386;20.434;2023-02-10T01:59:51;99096.94;;;-4.21;48.66
63568;BME280;49715;42.386;20.434;2023-02-10T02:02:18;99100.38;;;-4.22;48.59
63568;BME280;49715;42.386;20.434;2023-02-10T02:04:50;99094.44;;;-4.27;49.03
63568;BME280;49715;42.386;20.434;2023-02-10T02:07:21;99091.94;;;-4.32;49.02
63568;BME280;49715;42.386;20.434;2023-02-10T02:09:49;99088.53;;;-4.35;48.93
63568;BME280;49715;42.386;20.434;2023-02-10T02:12:30;99084.34;;;-4.46;49.19
63568;BME280;49715;42.386;20.434;2023-02-10T02:20:44;99089.59;;;-4.55;49.27
63568;BME280;49715;42.386;20.434;2023-02-10T02:34:38;99084.72;;;-4.79;49.71
63568;BME280;49715;42.386;20.434;2023-02-10T02:37:52;99091.66;;;-4.86;49.88
63568;BME280;49715;42.386;20.434;2023-02-10T02:40:13;99081.44;;;-4.95;49.72
63568;BME280;49715;42.386;20.434;2023-02-10T02:42:40;99075.50;;;-5.00;50.15
63568;BME280;49715;42.386;20.434;2023-02-10T02:45:15;99074.63;;;-4.98;49.64
63568;BME280;49715;42.386;20.434;2023-02-10T02:47:53;99077.25;;;-5.02;49.80
63568;BME280;49715;42.386;20.434;2023-02-10T02:50:35;99075.53;;;-5.02;49.79
63568;BME280;49715;42.386;20.434;2023-02-10T02:56:03;99084.19;;;-5.12;50.59
63568;BME280;49715;42.386;20.434;2023-02-10T03:01:42;99079.03;;;-5.13;50.71
63568;BME280;49715;42.386;20.434;2023-02-10T03:04:12;99069.66;;;-5.18;50.22
63568;BME280;49715;42.386;20.434;2023-02-10T03:06:39;99084.16;;;-5.10;49.96
63568;BME280;49715;42.386;20.434;2023-02-10T03:09:06;99078.19;;;-5.11;50.33
63568;BME280;49715;42.386;20.434;2023-02-10T03:11:32;99072.19;;;-5.11;50.20
63568;BME280;49715;42.386;20.434;2023-02-10T03:13:59;99074.72;;;-5.07;50.37
63568;BME280;49715;42.386;20.434;2023-02-10T03:16:25;99067.00;;;-5.07;50.14
63568;BME280;49715;42.386;20.434;2023-02-10T03:18:52;99065.28;;;-5.08;49.92
63568;BME280;49715;42.386;20.434;2023-02-10T03:21:18;99073.00;;;-5.09;50.11
63568;BME280;49715;42.386;20.434;2023-02-10T03:23:44;99073.88;;;-5.10;50.20
63568;BME280;49715;42.386;20.434;2023-02-10T03:26:11;99063.63;;;-5.13;50.33
63568;BME280;49715;42.386;20.434;2023-02-10T03:28:37;99067.94;;;-5.15;50.02
63568;BME280;49715;42.386;20.434;2023-02-10T03:31:05;99066.22;;;-5.18;50.35
63568;BME280;49715;42.386;20.434;2023-02-10T03:33:33;99064.56;;;-5.24;50.43
63568;BME280;49715;42.386;20.434;2023-02-10T03:36:00;99067.19;;;-5.30;50.41
63568;BME280;49715;42.386;20.434;2023-02-10T03:38:27;99060.41;;;-5.38;50.92
63568;BME280;49715;42.386;20.434;2023-02-10T03:40:54;99064.72;;;-5.44;50.64
63568;BME280;49715;42.386;20.434;2023-02-10T03:43:21;99064.81;;;-5.53;52.16
63568;BME280;49715;42.386;20.434;2023-02-10T03:45:48;99057.97;;;-5.57;50.91
63568;BME280;49715;42.386;20.434;2023-02-10T03:48:15;99058.03;;;-5.60;51.00
63568;BME280;49715;42.386;20.434;2023-02-10T03:50:44;99069.19;;;-5.64;50.86
63568;BME280;49715;42.386;20.434;2023-02-10T03:53:11;99063.19;;;-5.67;50.86
63568;BME280;49715;42.386;20.434;2023-02-10T03:55:37;99069.19;;;-5.64;51.05
63568;BME280;49715;42.386;20.434;2023-02-10T03:58:04;99060.63;;;-5.67;50.92
63568;BME280;49715;42.386;20.434;2023-02-10T04:00:30;99074.28;;;-5.62;50.97
63568;BME280;49715;42.386;20.434;2023-02-10T04:02:57;99057.22;;;-5.70;51.20
63568;BME280;49715;42.386;20.434;2023-02-10T04:05:23;99055.50;;;-5.67;51.08
63568;BME280;49715;42.386;20.434;2023-02-10T04:07:50;99058.06;;;-5.66;50.89
63568;BME280;49715;42.386;20.434;2023-02-10T04:10:16;99064.00;;;-5.62;50.96
63568;BME280;49715;42.386;20.434;2023-02-10T04:12:43;99059.75;;;-5.60;50.90
63568;BME280;49715;42.386;20.434;2023-02-10T04:15:09;99069.97;;;-5.54;51.05
63568;BME280;49715;42.386;20.434;2023-02-10T04:17:35;99075.06;;;-5.53;50.79
63568;BME280;49715;42.386;20.434;2023-02-10T04:20:02;99070.84;;;-5.55;50.94
63568;BME280;49715;42.386;20.434;2023-02-10T04:22:28;99082.81;;;-5.56;50.82
63568;BME280;49715;42.386;20.434;2023-02-10T04:24:55;99083.72;;;-5.63;50.88
63568;BME280;49715;42.386;20.434;2023-02-10T04:27:22;99076.00;;;-5.60;50.77
63568;BME280;49715;42.386;20.434;2023-02-10T04:29:48;99075.97;;;-5.58;51.00
63568;BME280;49715;42.386;20.434;2023-02-10T04:32:15;99075.97;;;-5.55;50.83
63568;BME280;49715;42.386;20.434;2023-02-10T04:34:41;99072.53;;;-5.57;50.87
63568;BME280;49715;42.386;20.434;2023-02-10T04:37:08;99082.81;;;-5.54;51.24
63568;BME280;49715;42.386;20.434;2023-02-10T04:39:35;99079.34;;;-5.50;51.03
63568;BME280;49715;42.386;20.434;2023-02-10T04:42:01;99074.22;;;-5.52;50.69
63568;BME280;49715;42.386;20.434;2023-02-10T04:44:28;99084.47;;;-5.52;51.12
63568;BME280;49715;42.386;20.434;2023-02-10T04:46:54;99081.91;;;-5.52;50.86
63568;BME280;49715;42.386;20.434;2023-02-10T04:49:21;99089.66;;;-5.53;51.05
63568;BME280;49715;42.386;20.434;2023-02-10T04:51:47;99089.69;;;-5.58;50.95
63568;BME280;49715;42.386;20.434;2023-02-10T04:54:13;99089.72;;;-5.64;50.96
63568;BME280;49715;42.386;20.434;2023-02-10T04:56:40;99094.00;;;-5.63;51.06
63568;BME280;49715;42.386;20.434;2023-02-10T04:59:07;99082.94;;;-5.73;50.88
63568;BME280;49715;42.386;20.434;2023-02-10T05:01:33;99094.91;;;-5.72;51.20
63568;BME280;49715;42.386;20.434;2023-02-10T05:04:00;99098.31;;;-5.70;50.93
63568;BME280;49715;42.386;20.434;2023-02-10T05:06:27;99091.50;;;-5.77;51.21
63568;BME280;49715;42.386;20.434;2023-02-10T05:08:53;99106.91;;;-5.74;51.47
63568;BME280;49715;42.386;20.434;2023-02-10T05:11:20;99102.59;;;-5.72;51.12
63568;BME280;49715;42.386;20.434;2023-02-10T05:13:46;99106.88;;;-5.69;51.30
63568;BME280;49715;42.386;20.434;2023-02-10T05:16:14;99107.75;;;-5.73;51.02
63568;BME280;49715;42.386;20.434;2023-02-10T05:18:41;99112.88;;;-5.70;51.18
63568;BME280;49715;42.386;20.434;2023-02-10T05:21:12;99111.19;;;-5.74;50.96
63568;BME280;49715;42.386;20.434;2023-02-10T05:23:40;99117.22;;;-5.80;50.89
63568;BME280;49715;42.386;20.434;2023-02-10T05:26:06;99118.94;;;-5.86;51.40
63568;BME280;49715;42.386;20.434;2023-02-10T05:28:35;99112.19;;;-5.93;51.58
63568;BME280;49715;42.386;20.434;2023-02-10T05:31:02;99111.31;;;-5.96;51.41
63568;BME280;49715;42.386;20.434;2023-02-10T05:33:34;99122.47;;;-5.98;51.61
63568;BME280;49715;42.386;20.434;2023-02-10T05:36:01;99109.69;;;-6.07;51.56
63568;BME280;49715;42.386;20.434;2023-02-10T05:38:28;99119.94;;;-6.06;52.09
63568;BME280;49715;42.386;20.434;2023-02-10T05:40:54;99124.22;;;-6.00;51.64
63568;BME280;49715;42.386;20.434;2023-02-10T05:43:20;99126.72;;;-5.96;51.72
63568;BME280;49715;42.386;20.434;2023-02-10T05:45:47;99125.91;;;-5.94;51.51
63568;BME280;49715;42.386;20.434;2023-02-10T05:48:14;99134.47;;;-5.99;51.49
63568;BME280;49715;42.386;20.434;2023-02-10T05:50:40;99136.22;;;-6.04;51.29
63568;BME280;49715;42.386;20.434;2023-02-10T05:53:13;99131.97;;;-6.17;52.07
63568;BME280;49715;42.386;20.434;2023-02-10T05:55:40;99131.16;;;-6.28;52.01
63568;BME280;49715;42.386;20.434;2023-02-10T05:58:07;99135.41;;;-6.26;52.37
63568;BME280;49715;42.386;20.434;2023-02-10T06:00:33;99129.41;;;-6.25;52.17
63568;BME280;49715;42.386;20.434;2023-02-10T06:03:00;99137.09;;;-6.17;51.96
63568;BME280;49715;42.386;20.434;2023-02-10T06:05:26;99142.25;;;-6.17;52.28
63568;BME280;49715;42.386;20.434;2023-02-10T06:07:53;99131.97;;;-6.17;52.41
63568;BME280;49715;42.386;20.434;2023-02-10T06:10:21;99137.94;;;-6.07;52.31
63568;BME280;49715;42.386;20.434;2023-02-10T06:12:48;99150.72;;;-5.97;52.39
63568;BME280;49715;42.386;20.434;2023-02-10T06:15:14;99149.84;;;-5.97;52.39
63568;BME280;49715;42.386;20.434;2023-02-10T06:17:41;99152.41;;;-5.92;52.55
63568;BME280;49715;42.386;20.434;2023-02-10T06:20:08;99151.47;;;-5.84;52.14
63568;BME280;49715;42.386;20.434;2023-02-10T06:22:34;99152.34;;;-5.80;51.99
63568;BME280;49715;42.386;20.434;2023-02-10T06:25:01;99159.13;;;-5.70;52.27
63568;BME280;49715;42.386;20.434;2023-02-10T06:27:27;99161.66;;;-5.67;52.09
63568;BME280;49715;42.386;20.434;2023-02-10T06:29:53;99156.50;;;-5.62;52.11
63568;BME280;49715;42.386;20.434;2023-02-10T06:32:20;99168.44;;;-5.57;52.28
63568;BME280;49715;42.386;20.434;2023-02-10T06:34:46;99165.84;;;-5.52;52.51
63568;BME280;49715;42.386;20.434;2023-02-10T06:37:13;99172.63;;;-5.42;52.27
63568;BME280;49715;42.386;20.434;2023-02-10T06:39:39;99158.13;;;-5.48;51.58
63568;BME280;49715;42.386;20.434;2023-02-10T06:42:06;99167.50;;;-5.40;52.02
63568;BME280;49715;42.386;20.434;2023-02-10T06:44:36;99175.16;;;-5.34;51.94
63568;BME280;49715;42.386;20.434;2023-02-10T06:47:02;99188.81;;;-5.22;52.03
63568;BME280;49715;42.386;20.434;2023-02-10T06:49:30;99182.78;;;-5.21;51.57
63568;BME280;49715;42.386;20.434;2023-02-10T06:51:57;99173.38;;;-5.22;51.88
63568;BME280;49715;42.386;20.434;2023-02-10T06:54:28;99180.22;;;-5.21;52.25
63568;BME280;49715;42.386;20.434;2023-02-10T06:56:55;99175.94;;;-5.17;52.23
63568;BME280;49715;42.386;20.434;2023-02-10T06:59:23;99175.88;;;-5.11;51.99
63568;BME280;49715;42.386;20.434;2023-02-10T07:01:56;99169.88;;;-5.13;51.90
63568;BME280;49715;42.386;20.434;2023-02-10T07:04:31;99175.78;;;-4.97;51.98
63568;BME280;49715;42.386;20.434;2023-02-10T07:07:01;99191.97;;;-4.86;52.13
63568;BME280;49715;42.386;20.434;2023-02-10T07:09:29;99179.13;;;-4.90;52.14
63568;BME280;49715;42.386;20.434;2023-02-10T07:11:59;99194.44;;;-4.78;51.92
63568;BME280;49715;42.386;20.434;2023-02-10T07:14:26;99187.59;;;-4.73;51.91
63568;BME280;49715;42.386;20.434;2023-02-10T07:16:52;99201.16;;;-4.57;52.01
63568;BME280;49715;42.386;20.434;2023-02-10T07:19:19;99203.63;;;-4.47;52.05
63568;BME280;49715;42.386;20.434;2023-02-10T07:21:47;99195.84;;;-4.41;52.07
63568;BME280;49715;42.386;20.434;2023-02-10T07:24:16;99200.06;;;-4.33;51.79
63568;BME280;49715;42.386;20.434;2023-02-10T07:26:43;99202.53;;;-4.26;51.69
63568;BME280;49715;42.386;20.434;2023-02-10T07:29:10;99192.19;;;-4.18;51.86
63568;BME280;49715;42.386;20.434;2023-02-10T07:31:38;99195.47;;;-4.04;51.58
63568;BME280;49715;42.386;20.434;2023-02-10T07:34:06;99186.78;;;-3.97;51.54
63568;BME280;49715;42.386;20.434;2023-02-10T07:36:33;99190.94;;;-3.86;51.63
63568;BME280;49715;42.386;20.434;2023-02-10T07:39:02;99199.41;;;-3.75;51.62
63568;BME280;49715;42.386;20.434;2023-02-10T07:41:29;99204.47;;;-3.68;51.42
63568;BME280;49715;42.386;20.434;2023-02-10T07:43:59;99194.13;;;-3.66;52.67
63568;BME280;49715;42.386;20.434;2023-02-10T07:46:25;99177.75;;;-3.62;51.46
63568;BME280;49715;42.386;20.434;2023-02-10T07:49:03;99187.06;;;-3.50;51.13
63568;BME280;49715;42.386;20.434;2023-02-10T07:51:30;99197.22;;;-3.40;51.13
63568;BME280;49715;42.386;20.434;2023-02-10T07:53:57;99194.56;;;-3.33;51.33
63568;BME280;49715;42.386;20.434;2023-02-10T07:56:27;99182.50;;;-3.31;51.20
63568;BME280;49715;42.386;20.434;2023-02-10T07:58:53;99183.22;;;-3.22;51.40
63568;BME280;49715;42.386;20.434;2023-02-10T08:01:21;99197.56;;;-3.04;51.43
63568;BME280;49715;42.386;20.434;2023-02-10T08:03:48;99185.44;;;-2.99;51.11
63568;BME280;49715;42.386;20.434;2023-02-10T08:06:20;99187.91;;;-2.91;51.39
63568;BME280;49715;42.386;20.434;2023-02-10T08:08:50;99190.34;;;-2.82;51.15
63568;BME280;49715;42.386;20.434;2023-02-10T08:11:17;99193.53;;;-2.66;51.15
63568;BME280;49715;42.386;20.434;2023-02-10T08:13:45;99189.78;;;-2.50;51.12
63568;BME280;49715;42.386;20.434;2023-02-10T08:16:14;99173.44;;;-2.49;50.88
63568;BME280;49715;42.386;20.434;2023-02-10T08:18:41;99186.25;;;-2.44;50.89
63568;BME280;49715;42.386;20.434;2023-02-10T08:21:08;99194.75;;;-2.38;51.26
63568;BME280;49715;42.386;20.434;2023-02-10T08:23:35;99201.47;;;-2.27;51.16
63568;BME280;49715;42.386;20.434;2023-02-10T08:26:04;99188.38;;;-2.20;51.53
63568;BME280;49715;42.386;20.434;2023-02-10T08:28:31;99178.63;;;-2.04;51.12
63568;BME280;49715;42.386;20.434;2023-02-10T08:30:59;99190.44;;;-1.92;50.97
63568;BME280;49715;42.386;20.434;2023-02-10T08:33:26;99192.72;;;-1.75;50.84
63568;BME280;49715;42.386;20.434;2023-02-10T08:35:53;99193.28;;;-1.63;51.49
63568;BME280;49715;42.386;20.434;2023-02-10T08:38:28;99187.03;;;-1.51;50.73
63568;BME280;49715;42.386;20.434;2023-02-10T08:40:55;99187.56;;;-1.37;50.39
63568;BME280;49715;42.386;20.434;2023-02-10T08:43:22;99181.44;;;-1.33;50.24
63568;BME280;49715;42.386;20.434;2023-02-10T08:45:58;99182.13;;;-1.24;50.17
63568;BME280;49715;42.386;20.434;2023-02-10T08:48:26;99179.31;;;-1.15;50.28
63568;BME280;49715;42.386;20.434;2023-02-10T08:50:53;99173.91;;;-1.05;50.09
63568;BME280;49715;42.386;20.434;2023-02-10T08:53:20;99183.31;;;-1.00;50.12
63568;BME280;49715;42.386;20.434;2023-02-10T08:56:02;99182.25;;;-0.93;49.45
63568;BME280;49715;42.386;20.434;2023-02-10T08:58:30;99185.53;;;-0.85;49.83
63568;BME280;49715;42.386;20.434;2023-02-10T09:00:56;99175.84;;;-0.79;49.46
63568;BME280;49715;42.386;20.434;2023-02-10T09:03:26;99190.22;;;-0.65;49.39
63568;BME280;49715;42.386;20.434;2023-02-10T09:05:53;99183.00;;;-0.54;49.21
63568;BME280;49715;42.386;20.434;2023-02-10T09:08:20;99198.19;;;-0.39;49.11
63568;BME280;49715;42.386;20.434;2023-02-10T09:10:48;99188.34;;;-0.26;48.92
63568;BME280;49715;42.386;20.434;2023-02-10T09:13:16;99190.53;;;-0.11;48.79
63568;BME280;49715;42.386;20.434;2023-02-10T09:15:42;99176.41;;;-0.01;48.45
63568;BME280;49715;42.386;20.434;2023-02-10T09:18:10;99190.81;;;0.10;48.39
63568;BME280;49715;42.386;20.434;2023-02-10T09:20:37;99180.31;;;0.16;48.62
63568;BME280;49715;42.386;20.434;2023-02-10T09:23:07;99171.38;;;0.26;48.42
63568;BME280;49715;42.386;20.434;2023-02-10T09:25:34;99188.22;;;0.41;48.08
63568;BME280;49715;42.386;20.434;2023-02-10T09:28:01;99178.44;;;0.50;48.22
63568;BME280;49715;42.386;20.434;2023-02-10T09:30:28;99177.25;;;0.61;48.36
63568;BME280;49715;42.386;20.434;2023-02-10T09:32:56;99176.66;;;0.81;47.85
63568;BME280;49715;42.386;20.434;2023-02-10T09:35:22;99173.63;;;0.94;47.83
63568;BME280;49715;42.386;20.434;2023-02-10T09:37:49;99181.78;;;1.10;47.83
63568;BME280;49715;42.386;20.434;2023-02-10T09:40:24;99182.13;;;1.26;47.30
63568;BME280;49715;42.386;20.434;2023-02-10T09:45:41;99175.56;;;1.42;46.75
63568;BME280;49715;42.386;20.434;2023-02-10T09:51:18;99177.88;;;1.75;46.27
63568;BME280;49715;42.386;20.434;2023-02-10T09:53:49;99167.13;;;1.86;46.34
63568;BME280;49715;42.386;20.434;2023-02-10T09:56:19;99167.59;;;1.97;46.10
63568;BME280;49715;42.386;20.434;2023-02-10T09:58:55;99176.78;;;2.07;46.07
63568;BME280;49715;42.386;20.434;2023-02-10T10:01:51;99168.75;;;2.13;45.99
63568;BME280;49715;42.386;20.434;2023-02-10T10:04:22;99159.84;;;2.19;46.04
63568;BME280;49715;42.386;20.434;2023-02-10T10:07:06;99158.50;;;2.32;45.76
63568;BME280;49715;42.386;20.434;2023-02-10T10:09:42;99165.56;;;2.52;46.12
63568;BME280;49715;42.386;20.434;2023-02-10T10:12:15;99155.56;;;2.65;45.89
63568;BME280;49715;42.386;20.434;2023-02-10T10:14:42;99160.91;;;2.83;45.55
63568;BME280;49715;42.386;20.434;2023-02-10T10:20:51;99152.63;;;3.16;45.08
63568;BME280;49715;42.386;20.434;2023-02-10T10:23:54;99147.41;;;3.38;44.09
63568;BME280;49715;42.386;20.434;2023-02-10T10:26:38;99143.16;;;3.56;44.79
63568;BME280;49715;42.386;20.434;2023-02-10T10:29:36;99122.81;;;3.64;43.83
63568;BME280;49715;42.386;20.434;2023-02-10T10:35:15;99116.53;;;3.88;44.25
63568;BME280;49715;42.386;20.434;2023-02-10T10:37:42;99116.78;;;4.03;44.15
63568;BME280;49715;42.386;20.434;2023-02-10T10:40:16;99116.81;;;4.22;43.68
63568;BME280;49715;42.386;20.434;2023-02-10T10:42:58;99109.28;;;4.34;43.49
63568;BME280;49715;42.386;20.434;2023-02-10T10:45:44;99088.38;;;4.34;43.46
63568;BME280;49715;42.386;20.434;2023-02-10T10:48:30;99091.25;;;4.47;42.88
63568;BME280;49715;42.386;20.434;2023-02-10T10:51:04;99083.69;;;4.60;43.17
63568;BME280;49715;42.386;20.434;2023-02-10T10:58:52;99075.13;;;4.93;42.97
63568;BME280;49715;42.386;20.434;2023-02-10T11:01:32;99081.78;;;5.00;42.29
63568;BME280;49715;42.386;20.434;2023-02-10T11:04:15;99069.19;;;5.08;42.19
63568;BME280;49715;42.386;20.434;2023-02-10T11:06:45;99067.84;;;5.16;42.51
63568;BME280;49715;42.386;20.434;2023-02-10T11:09:48;99074.31;;;5.27;41.74
63568;BME280;49715;42.386;20.434;2023-02-10T11:14:45;99061.94;;;5.30;42.26
63568;BME280;49715;42.386;20.434;2023-02-10T11:17:39;99064.09;;;5.39;41.50
63568;BME280;49715;42.386;20.434;2023-02-10T11:20:23;99053.47;;;5.42;40.21
63568;BME280;49715;42.386;20.434;2023-02-10T11:23:03;99061.25;;;5.44;41.51
63568;BME280;49715;42.386;20.434;2023-02-10T11:25:37;99051.63;;;5.45;41.90
63568;BME280;49715;42.386;20.434;2023-02-10T11:28:15;99047.59;;;5.55;41.61
63568;BME280;49715;42.386;20.434;2023-02-10T11:30:42;99044.13;;;5.72;41.51
63568;BME280;49715;42.386;20.434;2023-02-10T11:33:22;99046.66;;;5.73;39.56
63568;BME280;49715;42.386;20.434;2023-02-10T11:35:52;99044.47;;;5.81;41.20
63568;BME280;49715;42.386;20.434;2023-02-10T11:38:23;99037.97;;;5.88;40.96
63568;BME280;49715;42.386;20.434;2023-02-10T11:40:56;99033.22;;;5.97;41.02
63568;BME280;49715;42.386;20.434;2023-02-10T11:43:46;99037.03;;;6.23;39.12
63568;BME280;49715;42.386;20.434;2023-02-10T11:46:22;99026.50;;;6.40;39.94
63568;BME280;49715;42.386;20.434;2023-02-10T11:49:00;99026.78;;;6.65;38.77
63568;BME280;49715;42.386;20.434;2023-02-10T11:51:29;99023.03;;;6.85;39.72
63568;BME280;49715;42.386;20.434;2023-02-10T11:53:57;99023.50;;;7.08;39.81
63568;BME280;49715;42.386;20.434;2023-02-10T11:59:27;99026.06;;;7.38;38.89
63568;BME280;49715;42.386;20.434;2023-02-10T12:02:19;99013.41;;;7.30;37.88
63568;BME280;49715;42.386;20.434;2023-02-10T12:05:04;98993.25;;;7.31;38.75
63568;BME280;49715;42.386;20.434;2023-02-10T12:10:45;99003.59;;;7.48;38.28
63568;BME280;49715;42.386;20.434;2023-02-10T12:13:29;99006.59;;;7.56;37.70
63568;BME280;49715;42.386;20.434;2023-02-10T12:16:11;99013.00;;;7.66;38.66
63568;BME280;49715;42.386;20.434;2023-02-10T12:25:03;99006.13;;;7.92;36.61
63568;BME280;49715;42.386;20.434;2023-02-10T12:36:02;99005.03;;;8.23;36.28
63568;BME280;49715;42.386;20.434;2023-02-10T13:00:13;98993.75;;;9.02;36.77
63568;BME280;49715;42.386;20.434;2023-02-10T13:02:45;98996.91;;;9.08;37.09
63568;BME280;49715;42.386;20.434;2023-02-10T13:05:27;98992.41;;;9.10;35.99
63568;BME280;49715;42.386;20.434;2023-02-10T13:07:57;98999.47;;;9.22;37.11
63568;BME280;49715;42.386;20.434;2023-02-10T13:10:35;99002.53;;;9.28;36.25
63568;BME280;49715;42.386;20.434;2023-02-10T13:13:20;99002.44;;;9.30;35.96
63568;BME280;49715;42.386;20.434;2023-02-10T13:15:59;98996.75;;;9.23;36.16
63568;BME280;49715;42.386;20.434;2023-02-10T13:18:43;99000.75;;;9.29;36.30
63568;BME280;49715;42.386;20.434;2023-02-10T13:35:14;98997.06;;;9.83;35.80
63568;BME280;49715;42.386;20.434;2023-02-10T13:37:55;98979.66;;;9.80;35.53
63568;BME280;49715;42.386;20.434;2023-02-10T13:40:28;98987.34;;;9.83;36.16
63568;BME280;49715;42.386;20.434;2023-02-10T13:43:03;98986.19;;;9.87;36.25
63568;BME280;49715;42.386;20.434;2023-02-10T13:45:33;98984.09;;;9.92;36.14
63568;BME280;49715;42.386;20.434;2023-02-10T13:48:21;98968.81;;;9.85;34.63
63568;BME280;49715;42.386;20.434;2023-02-10T13:51:07;98970.59;;;9.84;35.20
63568;BME280;49715;42.386;20.434;2023-02-10T13:59:03;98979.53;;;9.94;35.26
63568;BME280;49715;42.386;20.434;2023-02-10T14:06:51;98983.25;;;9.79;35.54
63568;BME280;49715;42.386;20.434;2023-02-10T14:09:34;98975.91;;;9.71;34.62
63568;BME280;49715;42.386;20.434;2023-02-10T14:12:05;98975.16;;;9.69;35.78
63568;BME280;49715;42.386;20.434;2023-02-10T14:14:48;98968.31;;;9.67;35.82
63568;BME280;49715;42.386;20.434;2023-02-10T14:17:20;98970.66;;;9.71;35.69
63568;BME280;49715;42.386;20.434;2023-02-10T14:19:51;98965.47;;;9.70;35.82
63568;BME280;49715;42.386;20.434;2023-02-10T14:22:37;98968.09;;;9.70;34.52
63568;BME280;49715;42.386;20.434;2023-02-10T14:27:37;98978.44;;;9.73;36.06
63568;BME280;49715;42.386;20.434;2023-02-10T14:32:43;98977.03;;;9.80;35.52
63568;BME280;49715;42.386;20.434;2023-02-10T14:35:22;98981.25;;;9.83;35.24
63568;BME280;49715;42.386;20.434;2023-02-10T14:37:51;98987.03;;;9.88;35.50
63568;BME280;49715;42.386;20.434;2023-02-10T14:40:19;98980.59;;;9.92;35.53
63568;BME280;49715;42.386;20.434;2023-02-10T14:42:47;98977.53;;;9.85;35.18
63568;BME280;49715;42.386;20.434;2023-02-10T14:45:24;98977.97;;;9.79;35.11
63568;BME280;49715;42.386;20.434;2023-02-10T14:47:55;98977.97;;;9.79;35.45
63568;BME280;49715;42.386;20.434;2023-02-10T14:52:50;98979.38;;;9.72;35.44
63568;BME280;49715;42.386;20.434;2023-02-10T14:55:42;98974.94;;;9.60;33.89
63568;BME280;49715;42.386;20.434;2023-02-10T14:58:14;98970.00;;;9.55;35.43
63568;BME280;49715;42.386;20.434;2023-02-10T15:00:53;98976.84;;;9.45;34.69
63568;BME280;49715;42.386;20.434;2023-02-10T15:03:22;98959.38;;;9.31;35.38
63568;BME280;49715;42.386;20.434;2023-02-10T15:05:51;98973.59;;;9.28;35.49
63568;BME280;49715;42.386;20.434;2023-02-10T15:08:31;98968.75;;;9.10;35.28
63568;BME280;49715;42.386;20.434;2023-02-10T15:11:26;98971.47;;;8.95;35.54